sensor_id;sensor_type;location;lat;lon;timestamp;P1;durP1;ratioP1;P2;durP2;ratioP2
38117;SDS011;23928;47.562;7.508;2022-12-07T00:01:45;15.23;;;9.70;;
38117;SDS011;23928;47.562;7.508;2022-12-07T00:04:12;15.50;;;9.57;;
38117;SDS011;23928;47.562;7.508;2022-12-07T00:06:43;14.37;;;9.73;;
38117;SDS011;23928;47.562;7.508;2022-12-07T00:09:11;18.87;;;10.00;;
38117;SDS011;23928;47.562;7.508;2022-12-07T00:11:39;16.20;;;10.13;;
38117;SDS011;23928;47.562;7.508;2022-12-07T00:14:05;20.10;;;10.00;;
38117;SDS011;23928;47.562;7.508;2022-12-07T00:16:33;15.37;;;10.07;;
38117;SDS011;23928;47.562;7.508;2022-12-07T00:18:59;18.03;;;10.37;;
38117;SDS011;23928;47.562;7.508;2022-12-07T00:21:25;17.10;;;10.60;;
38117;SDS011;23928;47.562;7.508;2022-12-07T00:23:53;18.77;;;10.73;;
38117;SDS011;23928;47.562;7.508;2022-12-07T00:26:20;21.00;;;10.83;;
38117;SDS011;23928;47.562;7.508;2022-12-07T00:28:48;20.33;;;11.93;;
38117;SDS011;23928;47.562;7.508;2022-12-07T00:31:15;18.63;;;11.50;;
38117;SDS011;23928;47.562;7.508;2022-12-07T00:33:42;20.97;;;12.13;;
38117;SDS011;23928;47.562;7.508;2022-12-07T00:36:09;20.90;;;10.57;;
38117;SDS011;23928;47.562;7.508;2022-12-07T00:38:36;19.23;;;11.40;;
38117;SDS011;23928;47.562;7.508;2022-12-07T00:41:04;16.70;;;10.40;;
38117;SDS011;23928;47.562;7.508;2022-12-07T00:43:32;21.87;;;11.90;;
38117;SDS011;23928;47.562;7.508;2022-12-07T00:45:57;22.43;;;12.50;;
38117;SDS011;23928;47.562;7.508;2022-12-07T00:48:24;20.13;;;11.27;;
38117;SDS011;23928;47.562;7.508;2022-12-07T00:50:50;18.37;;;10.83;;
38117;SDS011;23928;47.562;7.508;2022-12-07T00:53:16;19.87;;;11.20;;
38117;SDS011;23928;47.562;7.508;2022-12-07T00:55:44;19.50;;;11.57;;
38117;SDS011;23928;47.562;7.508;2022-12-07T00:58:10;20.80;;;11.83;;
38117;SDS011;23928;47.562;7.508;2022-12-07T01:00:37;20.50;;;11.33;;
38117;SDS011;23928;47.562;7.508;2022-12-07T01:03:04;19.03;;;11.80;;
38117;SDS011;23928;47.562;7.508;2022-12-07T01:05:30;21.63;;;11.57;;
38117;SDS011;23928;47.562;7.508;2022-12-07T01:07:55;19.10;;;11.37;;
38117;SDS011;23928;47.562;7.508;2022-12-07T01:10:21;17.80;;;11.07;;
38117;SDS011;23928;47.562;7.508;2022-12-07T01:12:47;21.80;;;11.50;;
38117;SDS011;23928;47.562;7.508;2022-12-07T01:15:12;20.13;;;12.03;;
38117;SDS011;23928;47.562;7.508;2022-12-07T01:17:38;19.13;;;11.70;;
38117;SDS011;23928;47.562;7.508;2022-12-07T01:20:04;21.03;;;11.50;;
38117;SDS011;23928;47.562;7.508;2022-12-07T01:22:31;22.97;;;12.37;;
38117;SDS011;23928;47.562;7.508;2022-12-07T01:24:56;18.77;;;11.60;;
38117;SDS011;23928;47.562;7.508;2022-12-07T01:27:22;19.97;;;11.77;;
38117;SDS011;23928;47.562;7.508;2022-12-07T01:29:47;19.13;;;11.73;;
38117;SDS011;23928;47.562;7.508;2022-12-07T01:32:13;18.63;;;11.60;;
38117;SDS011;23928;47.562;7.508;2022-12-07T01:34:38;17.73;;;11.03;;
38117;SDS011;23928;47.562;7.508;2022-12-07T01:37:04;23.27;;;12.73;;
38117;SDS011;23928;47.562;7.508;2022-12-07T01:39:30;21.03;;;11.90;;
38117;SDS011;23928;47.562;7.508;2022-12-07T01:41:55;21.30;;;11.97;;
38117;SDS011;23928;47.562;7.508;2022-12-07T01:46:58;19.80;;;11.40;;
38117;SDS011;23928;47.562;7.508;2022-12-07T01:54:46;19.17;;;11.57;;
38117;SDS011;23928;47.562;7.508;2022-12-07T01:57:14;17.87;;;10.83;;
38117;SDS011;23928;47.562;7.508;2022-12-07T01:59:42;19.80;;;11.87;;
38117;SDS011;23928;47.562;7.508;2022-12-07T02:02:11;19.63;;;11.70;;
38117;SDS011;23928;47.562;7.508;2022-12-07T02:04:43;22.60;;;12.93;;
38117;SDS011;23928;47.562;7.508;2022-12-07T02:07:10;24.00;;;12.77;;
38117;SDS011;23928;47.562;7.508;2022-12-07T02:09:35;21.60;;;13.13;;
38117;SDS011;23928;47.562;7.508;2022-12-07T02:12:01;20.97;;;12.47;;
38117;SDS011;23928;47.562;7.508;2022-12-07T02:14:27;22.47;;;12.37;;
38117;SDS011;23928;47.562;7.508;2022-12-07T02:25:08;20.50;;;11.93;;
38117;SDS011;23928;47.562;7.508;2022-12-07T02:30:45;22.57;;;12.53;;
38117;SDS011;23928;47.562;7.508;2022-12-07T02:33:14;21.97;;;12.63;;
38117;SDS011;23928;47.562;7.508;2022-12-07T02:35:45;22.70;;;12.20;;
38117;SDS011;23928;47.562;7.508;2022-12-07T02:39:01;23.60;;;13.00;;
38117;SDS011;23928;47.562;7.508;2022-12-07T02:43:53;22.07;;;13.03;;
38117;SDS011;23928;47.562;7.508;2022-12-07T02:46:23;23.93;;;13.30;;
38117;SDS011;23928;47.562;7.508;2022-12-07T02:48:52;25.50;;;13.83;;
38117;SDS011;23928;47.562;7.508;2022-12-07T02:51:20;23.83;;;12.90;;
38117;SDS011;23928;47.562;7.508;2022-12-07T02:53:47;23.27;;;12.93;;
38117;SDS011;23928;47.562;7.508;2022-12-07T02:59:27;24.13;;;13.13;;
38117;SDS011;23928;47.562;7.508;2022-12-07T03:02:25;25.23;;;14.10;;
38117;SDS011;23928;47.562;7.508;2022-12-07T03:16:39;30.47;;;15.73;;
38117;SDS011;23928;47.562;7.508;2022-12-07T03:19:14;30.97;;;15.10;;
38117;SDS011;23928;47.562;7.508;2022-12-07T03:21:59;29.07;;;15.43;;
38117;SDS011;23928;47.562;7.508;2022-12-07T03:24:39;26.70;;;15.03;;
38117;SDS011;23928;47.562;7.508;2022-12-07T03:27:22;27.70;;;15.57;;
38117;SDS011;23928;47.562;7.508;2022-12-07T03:30:05;29.33;;;15.97;;
38117;SDS011;23928;47.562;7.508;2022-12-07T03:32:37;31.13;;;16.07;;
38117;SDS011;23928;47.562;7.508;2022-12-07T03:38:23;25.80;;;15.17;;
38117;SDS011;23928;47.562;7.508;2022-12-07T03:41:12;27.30;;;15.50;;
38117;SDS011;23928;47.562;7.508;2022-12-07T03:43:43;27.70;;;15.43;;
38117;SDS011;23928;47.562;7.508;2022-12-07T03:48:59;29.37;;;15.77;;
38117;SDS011;23928;47.562;7.508;2022-12-07T03:51:32;30.27;;;15.37;;
38117;SDS011;23928;47.562;7.508;2022-12-07T03:54:21;29.33;;;15.07;;
38117;SDS011;23928;47.562;7.508;2022-12-07T03:56:54;30.20;;;15.50;;
38117;SDS011;23928;47.562;7.508;2022-12-07T03:59:22;24.37;;;14.40;;
38117;SDS011;23928;47.562;7.508;2022-12-07T04:01:55;27.47;;;14.33;;
38117;SDS011;23928;47.562;7.508;2022-12-07T04:04:23;25.67;;;14.33;;
38117;SDS011;23928;47.562;7.508;2022-12-07T04:06:50;25.20;;;14.27;;
38117;SDS011;23928;47.562;7.508;2022-12-07T04:09:15;26.10;;;14.83;;
38117;SDS011;23928;47.562;7.508;2022-12-07T04:11:41;27.70;;;14.93;;
38117;SDS011;23928;47.562;7.508;2022-12-07T04:14:07;27.30;;;14.57;;
38117;SDS011;23928;47.562;7.508;2022-12-07T04:16:52;30.60;;;14.50;;
38117;SDS011;23928;47.562;7.508;2022-12-07T04:19:24;28.97;;;14.40;;
38117;SDS011;23928;47.562;7.508;2022-12-07T04:21:54;26.90;;;14.50;;
38117;SDS011;23928;47.562;7.508;2022-12-07T04:24:20;30.93;;;14.73;;
38117;SDS011;23928;47.562;7.508;2022-12-07T04:26:46;27.20;;;14.53;;
38117;SDS011;23928;47.562;7.508;2022-12-07T04:29:12;24.43;;;12.73;;
38117;SDS011;23928;47.562;7.508;2022-12-07T04:31:39;28.70;;;13.43;;
38117;SDS011;23928;47.562;7.508;2022-12-07T04:34:05;26.73;;;13.53;;
38117;SDS011;23928;47.562;7.508;2022-12-07T04:36:31;26.37;;;13.90;;
38117;SDS011;23928;47.562;7.508;2022-12-07T04:38:58;22.17;;;12.50;;
38117;SDS011;23928;47.562;7.508;2022-12-07T04:41:24;23.33;;;12.60;;
38117;SDS011;23928;47.562;7.508;2022-12-07T04:43:55;21.57;;;11.90;;
38117;SDS011;23928;47.562;7.508;2022-12-07T04:46:22;20.57;;;10.83;;
38117;SDS011;23928;47.562;7.508;2022-12-07T04:48:49;20.30;;;11.27;;
38117;SDS011;23928;47.562;7.508;2022-12-07T04:51:18;21.30;;;11.30;;
38117;SDS011;23928;47.562;7.508;2022-12-07T04:53:45;20.53;;;11.23;;
38117;SDS011;23928;47.562;7.508;2022-12-07T04:56:11;19.93;;;10.17;;
38117;SDS011;23928;47.562;7.508;2022-12-07T04:58:38;18.10;;;10.33;;
38117;SDS011;23928;47.562;7.508;2022-12-07T05:01:04;20.90;;;11.00;;
38117;SDS011;23928;47.562;7.508;2022-12-07T05:03:29;19.13;;;10.13;;
38117;SDS011;23928;47.562;7.508;2022-12-07T05:05:55;15.20;;;9.37;;
38117;SDS011;23928;47.562;7.508;2022-12-07T05:08:20;16.00;;;9.47;;
38117;SDS011;23928;47.562;7.508;2022-12-07T05:10:46;16.43;;;9.73;;
38117;SDS011;23928;47.562;7.508;2022-12-07T05:13:13;17.23;;;10.03;;
38117;SDS011;23928;47.562;7.508;2022-12-07T05:15:39;16.23;;;9.53;;
38117;SDS011;23928;47.562;7.508;2022-12-07T05:18:05;16.43;;;10.20;;
38117;SDS011;23928;47.562;7.508;2022-12-07T05:20:31;13.63;;;8.67;;
38117;SDS011;23928;47.562;7.508;2022-12-07T05:22:57;16.73;;;9.50;;
38117;SDS011;23928;47.562;7.508;2022-12-07T05:25:23;18.43;;;10.07;;
38117;SDS011;23928;47.562;7.508;2022-12-07T05:27:49;17.00;;;10.17;;
38117;SDS011;23928;47.562;7.508;2022-12-07T05:30:15;19.83;;;9.77;;
38117;SDS011;23928;47.562;7.508;2022-12-07T05:32:40;17.23;;;9.43;;
38117;SDS011;23928;47.562;7.508;2022-12-07T05:35:06;17.20;;;9.03;;
38117;SDS011;23928;47.562;7.508;2022-12-07T05:37:32;17.30;;;9.00;;
38117;SDS011;23928;47.562;7.508;2022-12-07T05:39:57;14.60;;;7.93;;
38117;SDS011;23928;47.562;7.508;2022-12-07T05:42:23;15.17;;;8.53;;
38117;SDS011;23928;47.562;7.508;2022-12-07T05:44:49;16.30;;;9.37;;
38117;SDS011;23928;47.562;7.508;2022-12-07T05:47:14;13.37;;;7.70;;
38117;SDS011;23928;47.562;7.508;2022-12-07T05:49:40;13.33;;;7.90;;
38117;SDS011;23928;47.562;7.508;2022-12-07T05:52:06;12.53;;;7.37;;
38117;SDS011;23928;47.562;7.508;2022-12-07T05:54:32;11.77;;;7.20;;
38117;SDS011;23928;47.562;7.508;2022-12-07T05:56:58;9.77;;;6.83;;
38117;SDS011;23928;47.562;7.508;2022-12-07T05:59:24;11.13;;;6.93;;
38117;SDS011;23928;47.562;7.508;2022-12-07T06:02:02;11.70;;;7.80;;
38117;SDS011;23928;47.562;7.508;2022-12-07T06:04:32;13.37;;;7.23;;
38117;SDS011;23928;47.562;7.508;2022-12-07T06:07:02;12.73;;;7.03;;
38117;SDS011;23928;47.562;7.508;2022-12-07T06:09:29;14.00;;;8.10;;
38117;SDS011;23928;47.562;7.508;2022-12-07T06:11:55;13.80;;;8.40;;
38117;SDS011;23928;47.562;7.508;2022-12-07T06:14:39;14.87;;;8.87;;
38117;SDS011;23928;47.562;7.508;2022-12-07T06:17:05;11.70;;;7.50;;
38117;SDS011;23928;47.562;7.508;2022-12-07T06:19:31;14.30;;;8.07;;
38117;SDS011;23928;47.562;7.508;2022-12-07T06:21:57;13.73;;;7.70;;
38117;SDS011;23928;47.562;7.508;2022-12-07T06:24:23;11.50;;;6.97;;
38117;SDS011;23928;47.562;7.508;2022-12-07T06:26:49;13.80;;;7.60;;
38117;SDS011;23928;47.562;7.508;2022-12-07T06:29:15;13.37;;;7.67;;
38117;SDS011;23928;47.562;7.508;2022-12-07T06:31:41;11.93;;;7.90;;
38117;SDS011;23928;47.562;7.508;2022-12-07T06:34:09;12.27;;;8.27;;
38117;SDS011;23928;47.562;7.508;2022-12-07T06:36:36;12.50;;;7.23;;
38117;SDS011;23928;47.562;7.508;2022-12-07T06:39:02;12.67;;;7.80;;
38117;SDS011;23928;47.562;7.508;2022-12-07T06:41:28;12.37;;;7.90;;
38117;SDS011;23928;47.562;7.508;2022-12-07T06:43:54;12.20;;;7.53;;
38117;SDS011;23928;47.562;7.508;2022-12-07T06:46:20;12.43;;;7.30;;
38117;SDS011;23928;47.562;7.508;2022-12-07T06:48:45;11.53;;;7.00;;
38117;SDS011;23928;47.562;7.508;2022-12-07T06:51:11;14.93;;;7.17;;
38117;SDS011;23928;47.562;7.508;2022-12-07T06:53:37;14.30;;;8.57;;
38117;SDS011;23928;47.562;7.508;2022-12-07T06:56:03;19.47;;;10.10;;
38117;SDS011;23928;47.562;7.508;2022-12-07T06:58:29;19.40;;;10.47;;
38117;SDS011;23928;47.562;7.508;2022-12-07T07:00:55;17.73;;;10.23;;
38117;SDS011;23928;47.562;7.508;2022-12-07T07:03:21;19.40;;;10.13;;
38117;SDS011;23928;47.562;7.508;2022-12-07T07:05:46;18.60;;;10.03;;
38117;SDS011;23928;47.562;7.508;2022-12-07T07:08:12;16.77;;;9.97;;
38117;SDS011;23928;47.562;7.508;2022-12-07T07:10:38;14.33;;;9.43;;
38117;SDS011;23928;47.562;7.508;2022-12-07T07:13:04;15.07;;;8.53;;
38117;SDS011;23928;47.562;7.508;2022-12-07T07:15:31;18.20;;;9.70;;
38117;SDS011;23928;47.562;7.508;2022-12-07T07:17:57;15.97;;;9.13;;
38117;SDS011;23928;47.562;7.508;2022-12-07T07:20:22;12.27;;;7.73;;
38117;SDS011;23928;47.562;7.508;2022-12-07T07:22:48;13.47;;;8.10;;
38117;SDS011;23928;47.562;7.508;2022-12-07T07:25:14;15.03;;;8.97;;
38117;SDS011;23928;47.562;7.508;2022-12-07T07:27:40;19.03;;;10.33;;
38117;SDS011;23928;47.562;7.508;2022-12-07T07:30:06;19.40;;;11.07;;
38117;SDS011;23928;47.562;7.508;2022-12-07T07:32:33;16.90;;;9.33;;
38117;SDS011;23928;47.562;7.508;2022-12-07T07:34:59;17.83;;;10.27;;
38117;SDS011;23928;47.562;7.508;2022-12-07T07:37:25;14.43;;;8.70;;
38117;SDS011;23928;47.562;7.508;2022-12-07T07:39:50;16.87;;;8.63;;
38117;SDS011;23928;47.562;7.508;2022-12-07T07:42:16;17.53;;;10.10;;
38117;SDS011;23928;47.562;7.508;2022-12-07T07:44:42;17.53;;;10.20;;
38117;SDS011;23928;47.562;7.508;2022-12-07T07:47:07;14.37;;;8.63;;
38117;SDS011;23928;47.562;7.508;2022-12-07T07:49:33;14.77;;;9.23;;
38117;SDS011;23928;47.562;7.508;2022-12-07T07:51:59;15.77;;;9.47;;
38117;SDS011;23928;47.562;7.508;2022-12-07T07:54:24;21.67;;;10.60;;
38117;SDS011;23928;47.562;7.508;2022-12-07T07:56:50;18.43;;;10.10;;
38117;SDS011;23928;47.562;7.508;2022-12-07T07:59:16;15.27;;;9.13;;
38117;SDS011;23928;47.562;7.508;2022-12-07T08:01:42;16.10;;;8.63;;
38117;SDS011;23928;47.562;7.508;2022-12-07T08:04:07;17.40;;;9.57;;
38117;SDS011;23928;47.562;7.508;2022-12-07T08:06:33;16.30;;;9.97;;
38117;SDS011;23928;47.562;7.508;2022-12-07T08:08:59;21.37;;;10.83;;
38117;SDS011;23928;47.562;7.508;2022-12-07T08:11:25;18.00;;;10.17;;
38117;SDS011;23928;47.562;7.508;2022-12-07T08:13:50;15.27;;;9.40;;
38117;SDS011;23928;47.562;7.508;2022-12-07T08:16:16;14.90;;;9.03;;
38117;SDS011;23928;47.562;7.508;2022-12-07T08:18:42;15.80;;;9.67;;
38117;SDS011;23928;47.562;7.508;2022-12-07T08:21:09;16.20;;;9.87;;
38117;SDS011;23928;47.562;7.508;2022-12-07T08:23:37;19.00;;;9.73;;
38117;SDS011;23928;47.562;7.508;2022-12-07T08:26:04;17.73;;;10.33;;
38117;SDS011;23928;47.562;7.508;2022-12-07T08:28:31;18.90;;;10.27;;
38117;SDS011;23928;47.562;7.508;2022-12-07T08:31:04;20.17;;;11.83;;
38117;SDS011;23928;47.562;7.508;2022-12-07T08:33:32;24.93;;;11.43;;
38117;SDS011;23928;47.562;7.508;2022-12-07T08:36:02;18.00;;;10.63;;
38117;SDS011;23928;47.562;7.508;2022-12-07T08:38:36;17.37;;;10.40;;
38117;SDS011;23928;47.562;7.508;2022-12-07T08:41:03;16.93;;;11.00;;
38117;SDS011;23928;47.562;7.508;2022-12-07T08:43:29;19.53;;;10.83;;
38117;SDS011;23928;47.562;7.508;2022-12-07T08:46:06;18.40;;;10.63;;
38117;SDS011;23928;47.562;7.508;2022-12-07T08:48:36;20.20;;;12.40;;
38117;SDS011;23928;47.562;7.508;2022-12-07T08:51:05;21.37;;;11.53;;
38117;SDS011;23928;47.562;7.508;2022-12-07T08:53:31;20.23;;;11.70;;
38117;SDS011;23928;47.562;7.508;2022-12-07T08:55:59;23.17;;;11.63;;
38117;SDS011;23928;47.562;7.508;2022-12-07T08:58:24;22.93;;;12.93;;
38117;SDS011;23928;47.562;7.508;2022-12-07T09:00:50;22.90;;;13.00;;
38117;SDS011;23928;47.562;7.508;2022-12-07T09:03:16;22.23;;;13.17;;
38117;SDS011;23928;47.562;7.508;2022-12-07T09:05:41;22.93;;;13.00;;
38117;SDS011;23928;47.562;7.508;2022-12-07T09:08:07;24.83;;;13.60;;
38117;SDS011;23928;47.562;7.508;2022-12-07T09:10:33;23.50;;;12.80;;
38117;SDS011;23928;47.562;7.508;2022-12-07T09:12:59;24.90;;;13.60;;
38117;SDS011;23928;47.562;7.508;2022-12-07T09:15:28;27.77;;;13.60;;
38117;SDS011;23928;47.562;7.508;2022-12-07T09:17:54;29.43;;;14.30;;
38117;SDS011;23928;47.562;7.508;2022-12-07T09:20:20;27.67;;;13.30;;
38117;SDS011;23928;47.562;7.508;2022-12-07T09:22:45;23.40;;;12.90;;
38117;SDS011;23928;47.562;7.508;2022-12-07T09:25:11;25.03;;;12.67;;
38117;SDS011;23928;47.562;7.508;2022-12-07T09:27:36;25.77;;;13.10;;
38117;SDS011;23928;47.562;7.508;2022-12-07T09:30:03;27.67;;;12.43;;
38117;SDS011;23928;47.562;7.508;2022-12-07T09:32:29;24.73;;;13.83;;
38117;SDS011;23928;47.562;7.508;2022-12-07T09:34:55;23.87;;;12.90;;
38117;SDS011;23928;47.562;7.508;2022-12-07T09:37:20;21.13;;;12.10;;
38117;SDS011;23928;47.562;7.508;2022-12-07T09:39:46;24.07;;;13.57;;
38117;SDS011;23928;47.562;7.508;2022-12-07T09:42:18;24.40;;;13.40;;
38117;SDS011;23928;47.562;7.508;2022-12-07T09:44:52;28.63;;;12.73;;
38117;SDS011;23928;47.562;7.508;2022-12-07T09:47:17;26.13;;;13.53;;
38117;SDS011;23928;47.562;7.508;2022-12-07T09:49:43;21.37;;;11.87;;
38117;SDS011;23928;47.562;7.508;2022-12-07T09:54:38;22.03;;;12.27;;
38117;SDS011;23928;47.562;7.508;2022-12-07T09:57:08;20.93;;;11.70;;
38117;SDS011;23928;47.562;7.508;2022-12-07T09:59:37;21.70;;;12.80;;
38117;SDS011;23928;47.562;7.508;2022-12-07T10:03:04;20.90;;;11.30;;
38117;SDS011;23928;47.562;7.508;2022-12-07T10:05:06;22.33;;;12.00;;
38117;SDS011;23928;47.562;7.508;2022-12-07T10:07:36;24.47;;;12.37;;
38117;SDS011;23928;47.562;7.508;2022-12-07T10:10:03;22.53;;;12.07;;
38117;SDS011;23928;47.562;7.508;2022-12-07T10:12:32;21.67;;;12.50;;
38117;SDS011;23928;47.562;7.508;2022-12-07T10:15:18;20.93;;;12.00;;
38117;SDS011;23928;47.562;7.508;2022-12-07T10:17:48;21.53;;;12.23;;
38117;SDS011;23928;47.562;7.508;2022-12-07T10:25:29;22.43;;;12.37;;
38117;SDS011;23928;47.562;7.508;2022-12-07T10:27:58;19.97;;;11.60;;
38117;SDS011;23928;47.562;7.508;2022-12-07T10:30:33;21.10;;;11.37;;
38117;SDS011;23928;47.562;7.508;2022-12-07T10:34:11;18.83;;;11.03;;
38117;SDS011;23928;47.562;7.508;2022-12-07T10:39:15;17.70;;;10.70;;
38117;SDS011;23928;47.562;7.508;2022-12-07T10:44:34;20.83;;;11.93;;
38117;SDS011;23928;47.562;7.508;2022-12-07T10:52:18;20.00;;;11.20;;
38117;SDS011;23928;47.562;7.508;2022-12-07T11:00:27;20.73;;;12.13;;
38117;SDS011;23928;47.562;7.508;2022-12-07T11:05:43;19.20;;;10.67;;
38117;SDS011;23928;47.562;7.508;2022-12-07T11:08:51;18.93;;;11.53;;
38117;SDS011;23928;47.562;7.508;2022-12-07T11:11:35;19.80;;;11.43;;
38117;SDS011;23928;47.562;7.508;2022-12-07T11:22:17;17.13;;;11.00;;
38117;SDS011;23928;47.562;7.508;2022-12-07T11:35:38;16.17;;;10.00;;
38117;SDS011;23928;47.562;7.508;2022-12-07T11:38:19;17.83;;;10.57;;
38117;SDS011;23928;47.562;7.508;2022-12-07T11:40:55;17.30;;;9.80;;
38117;SDS011;23928;47.562;7.508;2022-12-07T11:43:37;14.10;;;8.93;;
38117;SDS011;23928;47.562;7.508;2022-12-07T11:46:14;31.27;;;17.73;;
38117;SDS011;23928;47.562;7.508;2022-12-07T11:51:17;14.00;;;8.73;;
38117;SDS011;23928;47.562;7.508;2022-12-07T11:53:51;14.63;;;8.53;;
38117;SDS011;23928;47.562;7.508;2022-12-07T11:56:23;15.17;;;8.07;;
38117;SDS011;23928;47.562;7.508;2022-12-07T11:58:55;13.80;;;8.70;;
38117;SDS011;23928;47.562;7.508;2022-12-07T12:06:39;15.37;;;9.13;;
38117;SDS011;23928;47.562;7.508;2022-12-07T12:12:06;12.80;;;8.40;;
38117;SDS011;23928;47.562;7.508;2022-12-07T12:17:32;13.97;;;8.20;;
38117;SDS011;23928;47.562;7.508;2022-12-07T12:22:58;13.03;;;7.60;;
38117;SDS011;23928;47.562;7.508;2022-12-07T12:25:26;13.23;;;7.70;;
38117;SDS011;23928;47.562;7.508;2022-12-07T12:28:04;12.73;;;7.50;;
38117;SDS011;23928;47.562;7.508;2022-12-07T12:33:01;10.10;;;6.00;;
38117;SDS011;23928;47.562;7.508;2022-12-07T12:35:48;9.87;;;6.07;;
38117;SDS011;23928;47.562;7.508;2022-12-07T12:44:03;10.93;;;6.83;;
38117;SDS011;23928;47.562;7.508;2022-12-07T12:51:45;10.93;;;6.70;;
38117;SDS011;23928;47.562;7.508;2022-12-07T12:54:23;10.23;;;6.17;;
38117;SDS011;23928;47.562;7.508;2022-12-07T13:12:56;9.97;;;6.77;;
38117;SDS011;23928;47.562;7.508;2022-12-07T13:15:44;12.37;;;6.60;;
38117;SDS011;23928;47.562;7.508;2022-12-07T13:23:20;12.13;;;7.27;;
38117;SDS011;23928;47.562;7.508;2022-12-07T13:25:51;11.23;;;6.67;;
38117;SDS011;23928;47.562;7.508;2022-12-07T13:28:40;13.13;;;7.13;;
38117;SDS011;23928;47.562;7.508;2022-12-07T13:31:17;10.60;;;6.90;;
38117;SDS011;23928;47.562;7.508;2022-12-07T13:34:03;10.93;;;6.27;;
38117;SDS011;23928;47.562;7.508;2022-12-07T13:36:34;9.90;;;6.73;;
38117;SDS011;23928;47.562;7.508;2022-12-07T13:39:22;11.83;;;7.17;;
38117;SDS011;23928;47.562;7.508;2022-12-07T13:41:57;10.20;;;6.90;;
38117;SDS011;23928;47.562;7.508;2022-12-07T13:44:25;12.13;;;7.03;;
38117;SDS011;23928;47.562;7.508;2022-12-07T13:49:30;11.00;;;6.63;;
38117;SDS011;23928;47.562;7.508;2022-12-07T13:52:12;8.40;;;5.60;;
38117;SDS011;23928;47.562;7.508;2022-12-07T13:57:20;9.93;;;6.03;;
38117;SDS011;23928;47.562;7.508;2022-12-07T13:59:47;10.43;;;5.70;;
38117;SDS011;23928;47.562;7.508;2022-12-07T14:02:20;10.07;;;6.53;;
38117;SDS011;23928;47.562;7.508;2022-12-07T14:04:48;11.37;;;6.93;;
38117;SDS011;23928;47.562;7.508;2022-12-07T14:07:23;11.50;;;5.87;;
38117;SDS011;23928;47.562;7.508;2022-12-07T14:09:58;8.57;;;5.87;;
38117;SDS011;23928;47.562;7.508;2022-12-07T14:12:25;10.17;;;5.90;;
38117;SDS011;23928;47.562;7.508;2022-12-07T14:14:53;9.37;;;6.03;;
38117;SDS011;23928;47.562;7.508;2022-12-07T14:17:21;10.53;;;6.57;;
38117;SDS011;23928;47.562;7.508;2022-12-07T14:19:52;11.07;;;6.50;;
38117;SDS011;23928;47.562;7.508;2022-12-07T14:22:21;11.03;;;6.47;;
38117;SDS011;23928;47.562;7.508;2022-12-07T14:25:00;10.63;;;5.60;;
38117;SDS011;23928;47.562;7.508;2022-12-07T14:27:39;9.07;;;5.70;;
38117;SDS011;23928;47.562;7.508;2022-12-07T14:30:15;10.90;;;6.03;;
38117;SDS011;23928;47.562;7.508;2022-12-07T14:32:43;9.03;;;6.20;;
38117;SDS011;23928;47.562;7.508;2022-12-07T14:35:14;11.47;;;6.67;;
38117;SDS011;23928;47.562;7.508;2022-12-07T14:37:43;9.83;;;5.70;;
38117;SDS011;23928;47.562;7.508;2022-12-07T14:40:15;8.43;;;5.00;;
38117;SDS011;23928;47.562;7.508;2022-12-07T14:42:43;10.30;;;6.00;;
38117;SDS011;23928;47.562;7.508;2022-12-07T14:45:12;8.07;;;5.83;;
38117;SDS011;23928;47.562;7.508;2022-12-07T14:47:40;10.57;;;6.03;;
38117;SDS011;23928;47.562;7.508;2022-12-07T14:50:05;9.63;;;5.93;;
38117;SDS011;23928;47.562;7.508;2022-12-07T14:52:31;14.40;;;5.93;;
38117;SDS011;23928;47.562;7.508;2022-12-07T14:54:58;10.20;;;6.03;;
38117;SDS011;23928;47.562;7.508;2022-12-07T14:57:23;9.43;;;5.70;;
38117;SDS011;23928;47.562;7.508;2022-12-07T14:59:49;10.23;;;5.87;;
38117;SDS011;23928;47.562;7.508;2022-12-07T15:02:14;8.50;;;5.00;;
38117;SDS011;23928;47.562;7.508;2022-12-07T15:04:40;9.53;;;5.53;;
38117;SDS011;23928;47.562;7.508;2022-12-07T15:07:09;10.03;;;5.80;;
38117;SDS011;23928;47.562;7.508;2022-12-07T15:09:41;8.27;;;5.30;;
38117;SDS011;23928;47.562;7.508;2022-12-07T15:12:07;9.43;;;5.93;;
38117;SDS011;23928;47.562;7.508;2022-12-07T15:14:32;9.93;;;6.00;;
38117;SDS011;23928;47.562;7.508;2022-12-07T15:16:58;8.73;;;5.20;;
38117;SDS011;23928;47.562;7.508;2022-12-07T15:19:24;7.57;;;4.87;;
38117;SDS011;23928;47.562;7.508;2022-12-07T15:21:51;9.80;;;5.90;;
38117;SDS011;23928;47.562;7.508;2022-12-07T15:24:17;8.70;;;5.73;;
38117;SDS011;23928;47.562;7.508;2022-12-07T15:26:43;10.20;;;5.60;;
38117;SDS011;23928;47.562;7.508;2022-12-07T15:29:09;10.77;;;5.47;;
38117;SDS011;23928;47.562;7.508;2022-12-07T15:31:35;10.87;;;5.77;;
38117;SDS011;23928;47.562;7.508;2022-12-07T15:34:01;11.10;;;6.40;;
38117;SDS011;23928;47.562;7.508;2022-12-07T15:36:28;11.50;;;6.60;;
38117;SDS011;23928;47.562;7.508;2022-12-07T15:38:55;9.90;;;5.87;;
38117;SDS011;23928;47.562;7.508;2022-12-07T15:41:21;10.17;;;6.30;;
38117;SDS011;23928;47.562;7.508;2022-12-07T15:43:46;7.10;;;5.43;;
38117;SDS011;23928;47.562;7.508;2022-12-07T15:46:31;9.53;;;6.33;;
38117;SDS011;23928;47.562;7.508;2022-12-07T15:48:58;12.40;;;6.00;;
38117;SDS011;23928;47.562;7.508;2022-12-07T15:51:24;12.37;;;6.10;;
38117;SDS011;23928;47.562;7.508;2022-12-07T15:53:51;10.53;;;5.83;;
38117;SDS011;23928;47.562;7.508;2022-12-07T15:56:17;10.43;;;6.43;;
38117;SDS011;23928;47.562;7.508;2022-12-07T15:58:42;11.27;;;6.33;;
38117;SDS011;23928;47.562;7.508;2022-12-07T16:01:11;10.77;;;6.27;;
38117;SDS011;23928;47.562;7.508;2022-12-07T16:03:38;11.80;;;6.50;;
38117;SDS011;23928;47.562;7.508;2022-12-07T16:06:04;11.60;;;7.00;;
38117;SDS011;23928;47.562;7.508;2022-12-07T16:08:30;9.33;;;6.33;;
38117;SDS011;23928;47.562;7.508;2022-12-07T16:10:56;9.50;;;5.87;;
38117;SDS011;23928;47.562;7.508;2022-12-07T16:13:21;9.37;;;6.07;;
38117;SDS011;23928;47.562;7.508;2022-12-07T16:15:47;8.83;;;5.90;;
38117;SDS011;23928;47.562;7.508;2022-12-07T16:18:13;10.70;;;7.00;;
38117;SDS011;23928;47.562;7.508;2022-12-07T16:20:39;12.80;;;7.40;;
38117;SDS011;23928;47.562;7.508;2022-12-07T16:23:05;13.90;;;7.57;;
38117;SDS011;23928;47.562;7.508;2022-12-07T16:25:32;12.50;;;7.57;;
38117;SDS011;23928;47.562;7.508;2022-12-07T16:27:57;12.60;;;8.07;;
38117;SDS011;23928;47.562;7.508;2022-12-07T16:30:23;15.00;;;8.80;;
38117;SDS011;23928;47.562;7.508;2022-12-07T16:32:50;12.40;;;7.60;;
38117;SDS011;23928;47.562;7.508;2022-12-07T16:35:16;12.40;;;7.83;;
38117;SDS011;23928;47.562;7.508;2022-12-07T16:37:42;15.13;;;8.93;;
38117;SDS011;23928;47.562;7.508;2022-12-07T16:40:08;15.20;;;9.77;;
38117;SDS011;23928;47.562;7.508;2022-12-07T16:42:35;16.17;;;9.80;;
38117;SDS011;23928;47.562;7.508;2022-12-07T16:45:01;17.80;;;9.93;;
38117;SDS011;23928;47.562;7.508;2022-12-07T16:47:27;17.67;;;10.63;;
38117;SDS011;23928;47.562;7.508;2022-12-07T16:49:53;17.67;;;11.07;;
38117;SDS011;23928;47.562;7.508;2022-12-07T16:52:19;22.33;;;12.70;;
38117;SDS011;23928;47.562;7.508;2022-12-07T16:54:45;20.53;;;12.73;;
38117;SDS011;23928;47.562;7.508;2022-12-07T16:57:12;20.63;;;13.03;;
38117;SDS011;23928;47.562;7.508;2022-12-07T16:59:37;26.17;;;14.60;;
38117;SDS011;23928;47.562;7.508;2022-12-07T17:02:03;23.20;;;14.60;;
38117;SDS011;23928;47.562;7.508;2022-12-07T17:04:29;24.93;;;14.43;;